createdAt,value
2018-12-05T00:01:38.232Z,15.33
2018-12-05T00:04:06.406Z,13.60
2018-12-05T00:06:34.594Z,17.37
2018-12-05T00:09:02.677Z,15.57
2018-12-05T00:11:30.849Z,15.40
2018-12-05T00:13:58.966Z,17.33
2018-12-05T00:16:27.054Z,8.13
2018-12-05T00:18:55.243Z,14.25
2018-12-05T00:21:23.338Z,15.13
2018-12-05T00:23:51.491Z,20.93
2018-12-05T00:26:19.675Z,18.37
2018-12-05T00:28:47.755Z,14.13
2018-12-05T00:31:16.538Z,12.78
2018-12-05T00:33:44.608Z,14.10
2018-12-05T00:36:12.693Z,21.00
2018-12-05T00:38:40.827Z,18.50
2018-12-05T00:41:09.026Z,17.30
2018-12-05T00:43:37.194Z,24.53
2018-12-05T00:46:05.375Z,27.23
2018-12-05T00:48:33.534Z,17.07
2018-12-05T00:51:01.624Z,16.93
2018-12-05T00:53:29.693Z,14.63
2018-12-05T00:55:57.867Z,10.70
2018-12-05T00:58:26.030Z,15.40
2018-12-05T01:00:54.218Z,12.43
2018-12-05T01:03:22.434Z,19.17
2018-12-05T01:05:50.574Z,14.50
2018-12-05T01:08:19.629Z,13.50
2018-12-05T01:10:47.782Z,22.53
2018-12-05T01:13:16.226Z,15.17
2018-12-05T01:15:44.430Z,9.23
2018-12-05T01:18:12.578Z,9.35
2018-12-05T01:20:40.653Z,14.03
2018-12-05T01:23:08.810Z,13.68
2018-12-05T01:25:37.174Z,18.97
2018-12-05T01:28:05.357Z,22.37
2018-12-05T01:30:33.521Z,15.37
2018-12-05T01:33:01.610Z,12.20
2018-12-05T01:35:29.769Z,10.37
2018-12-05T01:37:57.958Z,9.63
2018-12-05T01:40:26.134Z,10.88
2018-12-05T01:42:54.326Z,41.18
2018-12-05T01:45:22.403Z,20.20
2018-12-05T01:47:50.514Z,19.57
2018-12-05T01:50:18.613Z,10.57
2018-12-05T01:52:46.813Z,10.67
2018-12-05T01:55:14.966Z,23.20
2018-12-05T01:57:43.170Z,15.20
2018-12-05T02:00:11.238Z,35.83
2018-12-05T02:02:39.321Z,22.13
2018-12-05T02:05:07.457Z,22.93
2018-12-05T02:07:35.837Z,20.33
2018-12-05T02:10:04.116Z,19.67
2018-12-05T02:14:55.885Z,21.15
2018-12-05T02:17:24.046Z,19.87
2018-12-05T02:19:52.234Z,14.37
2018-12-05T02:22:20.406Z,17.50
2018-12-05T02:24:48.558Z,25.07
2018-12-05T02:27:16.655Z,17.53
2018-12-05T02:29:50.154Z,23.20
2018-12-05T02:32:19.066Z,6.57
2018-12-05T02:34:47.199Z,26.63
2018-12-05T02:37:15.349Z,19.27
2018-12-05T02:39:43.540Z,12.70
2018-12-05T02:42:11.727Z,13.93
2018-12-05T02:44:40.000Z,15.60
2018-12-05T02:47:08.185Z,12.33
2018-12-05T02:49:36.398Z,21.97
2018-12-05T02:52:04.486Z,28.60
2018-12-05T02:54:32.681Z,22.87
2018-12-05T02:57:00.882Z,16.13
2018-12-05T02:59:28.986Z,20.73
2018-12-05T03:01:57.108Z,17.23
2018-12-05T03:04:25.297Z,27.07
2018-12-05T03:06:53.375Z,18.73
2018-12-05T03:09:22.599Z,36.83
2018-12-05T03:11:50.734Z,8.63
2018-12-05T03:14:19.403Z,24.03
2018-12-05T03:16:47.591Z,12.00
2018-12-05T03:19:15.677Z,19.00
2018-12-05T03:21:43.759Z,17.10
2018-12-05T03:24:11.936Z,17.20
2018-12-05T03:26:40.546Z,27.93
2018-12-05T03:29:08.716Z,12.68
2018-12-05T03:31:36.788Z,21.00
2018-12-05T03:34:05.215Z,12.77
2018-12-05T03:36:33.292Z,15.73
2018-12-05T03:39:01.402Z,16.50
2018-12-05T03:41:29.579Z,29.30
2018-12-05T03:43:57.839Z,23.97
2018-12-05T03:46:25.920Z,20.60
2018-12-05T03:48:54.074Z,15.83
2018-12-05T03:51:22.248Z,15.10
2018-12-05T03:53:50.433Z,22.20
2018-12-05T03:56:18.602Z,20.33
2018-12-05T03:58:46.706Z,15.80
2018-12-05T04:01:14.830Z,18.37
2018-12-05T04:03:42.921Z,23.47
2018-12-05T04:06:11.039Z,17.60
2018-12-05T04:08:39.221Z,19.93
2018-12-05T04:11:07.275Z,11.13
2018-12-05T04:13:35.347Z,17.10
2018-12-05T04:16:03.442Z,25.23
2018-12-05T04:18:31.582Z,20.13
2018-12-05T04:20:59.639Z,14.87
2018-12-05T04:23:27.705Z,22.20
2018-12-05T04:25:55.763Z,21.47
2018-12-05T04:28:23.832Z,31.40
2018-12-05T04:30:51.988Z,21.60
2018-12-05T04:33:20.054Z,26.37
2018-12-05T04:35:48.111Z,19.77
2018-12-05T04:38:16.178Z,32.37
2018-12-05T04:40:44.266Z,22.80
2018-12-05T04:43:12.377Z,13.10
2018-12-05T04:45:40.523Z,20.97
2018-12-05T04:48:08.584Z,16.60
2018-12-05T04:50:36.658Z,16.63
2018-12-05T04:53:04.797Z,15.30
2018-12-05T04:55:32.861Z,18.77
2018-12-05T04:58:00.982Z,18.07
2018-12-05T05:00:29.042Z,25.33
2018-12-05T05:02:57.135Z,21.70
2018-12-05T05:05:25.205Z,28.53
2018-12-05T05:07:53.331Z,14.33
2018-12-05T05:10:21.450Z,26.53
2018-12-05T05:12:49.506Z,27.10
2018-12-05T05:15:17.570Z,20.95
2018-12-05T05:17:45.649Z,19.30
2018-12-05T05:20:13.733Z,28.00
2018-12-05T05:22:41.806Z,21.37
2018-12-05T05:25:09.999Z,41.03
2018-12-05T05:27:38.057Z,27.13
2018-12-05T05:30:06.234Z,27.30
2018-12-05T05:32:34.786Z,20.67
2018-12-05T05:35:02.865Z,21.63
2018-12-05T05:37:31.351Z,21.00
2018-12-05T05:39:59.458Z,21.53
2018-12-05T05:42:27.514Z,23.70
2018-12-05T05:44:55.593Z,27.00
2018-12-05T05:47:23.755Z,21.80
2018-12-05T05:49:51.843Z,15.33
2018-12-05T05:52:19.901Z,30.13
2018-12-05T05:54:47.985Z,41.97
2018-12-05T05:57:16.048Z,26.80
2018-12-05T05:59:44.188Z,23.83
2018-12-05T06:02:12.290Z,27.67
2018-12-05T06:04:40.362Z,33.87
2018-12-05T06:07:09.488Z,23.70
2018-12-05T06:13:02.050Z,31.57
2018-12-05T06:15:30.275Z,26.48
2018-12-05T06:17:58.703Z,35.23
2018-12-05T07:23:08.966Z,31.75
2018-12-05T07:31:29.685Z,28.98
2018-12-05T07:42:40.741Z,33.53
2018-12-05T07:47:21.550Z,27.70
2018-12-05T07:50:07.024Z,25.45
2018-12-05T08:09:22.483Z,26.33
2018-12-05T08:21:17.182Z,25.73
2018-12-05T08:24:04.373Z,32.60
2018-12-05T08:54:00.410Z,34.38
2018-12-05T09:10:49.535Z,21.73
2018-12-05T09:19:06.429Z,19.05
2018-12-05T09:24:27.781Z,24.60
2018-12-05T09:26:59.678Z,35.37
2018-12-05T09:32:39.247Z,19.85
2018-12-05T09:35:09.991Z,20.32
2018-12-05T09:37:46.007Z,24.83
2018-12-05T09:43:10.791Z,27.33
2018-12-05T09:59:17.283Z,16.20
2018-12-05T10:04:47.745Z,23.97
2018-12-05T10:10:08.982Z,27.55
2018-12-05T10:16:55.200Z,21.83
2018-12-05T10:22:11.750Z,25.60
2018-12-05T10:24:48.061Z,27.60
2018-12-05T10:27:16.588Z,30.80
2018-12-05T10:29:49.638Z,24.23
2018-12-05T10:35:16.721Z,28.05
2018-12-05T10:40:33.611Z,30.37
2018-12-05T10:43:06.341Z,27.07
2018-12-05T10:45:35.470Z,23.03
2018-12-05T10:51:35.810Z,19.30
2018-12-05T11:03:50.598Z,24.83
2018-12-05T11:06:25.771Z,23.43
2018-12-05T11:11:59.910Z,22.40
2018-12-05T11:14:48.427Z,15.83
2018-12-05T11:17:22.396Z,23.53
2018-12-05T11:19:57.707Z,24.23
2018-12-05T11:22:44.483Z,32.55
2018-12-05T11:25:23.074Z,14.43
2018-12-05T11:27:51.630Z,20.03
2018-12-05T11:30:21.092Z,11.43
2018-12-05T11:35:42.042Z,24.97
2018-12-05T11:38:10.192Z,17.10
2018-12-05T11:49:25.337Z,24.63
2018-12-05T11:52:19.191Z,11.03
2018-12-05T12:02:09.066Z,14.50
2018-12-05T12:04:39.144Z,27.23
2018-12-05T12:07:07.383Z,30.13
2018-12-05T12:12:31.993Z,15.40
2018-12-05T12:15:01.485Z,19.83
2018-12-05T12:23:35.549Z,8.27
2018-12-05T12:28:56.811Z,26.77
2018-12-05T12:31:24.976Z,19.63
2018-12-05T12:36:39.408Z,27.15
2018-12-05T12:50:19.442Z,18.60
2018-12-05T12:58:44.745Z,12.53
2018-12-05T13:09:48.857Z,13.58
2018-12-05T13:15:26.100Z,15.98
2018-12-05T13:17:55.572Z,41.33
2018-12-05T13:25:54.838Z,14.47
2018-12-05T13:31:12.996Z,20.08
2018-12-05T13:37:25.415Z,28.95
2018-12-05T13:39:53.949Z,17.37
2018-12-05T13:42:41.729Z,19.00
2018-12-05T13:47:44.591Z,21.13
2018-12-05T13:50:12.835Z,25.37
2018-12-05T13:52:41.119Z,23.60
2018-12-05T13:55:09.401Z,33.27
2018-12-05T13:57:39.867Z,14.60
2018-12-05T14:00:08.970Z,26.13
2018-12-05T14:02:37.450Z,16.85
2018-12-05T14:05:05.915Z,28.40
2018-12-05T14:10:27.725Z,26.67
2018-12-05T14:12:58.994Z,16.00
2018-12-05T14:15:27.933Z,17.60
2018-12-05T14:18:01.306Z,23.00
2018-12-05T14:20:26.481Z,27.67
2018-12-05T14:22:54.844Z,28.20
2018-12-05T14:25:23.099Z,30.88
2018-12-05T14:27:51.382Z,19.12
2018-12-05T14:30:19.689Z,33.40
2018-12-05T14:32:47.823Z,15.40
2018-12-05T14:35:16.140Z,17.53
2018-12-05T14:37:44.415Z,23.27
2018-12-05T14:40:12.755Z,16.40
2018-12-05T14:42:40.994Z,16.73
2018-12-05T14:45:09.420Z,17.00
2018-12-05T14:47:38.132Z,13.93
2018-12-05T14:52:59.459Z,13.38
2018-12-05T15:01:05.343Z,22.60
2018-12-05T15:06:21.616Z,13.77
2018-12-05T15:21:17.465Z,28.07
2018-12-05T15:30:57.874Z,23.10
2018-12-05T15:38:58.976Z,23.80
2018-12-05T15:47:48.906Z,16.67
2018-12-05T15:50:18.543Z,16.63
2018-12-05T15:55:43.665Z,18.82
2018-12-05T15:58:13.137Z,14.87
2018-12-05T16:01:02.967Z,31.33
2018-12-05T16:03:31.232Z,22.40
2018-12-05T16:06:06.733Z,26.33
2018-12-05T16:11:42.891Z,20.50
2018-12-05T16:19:50.151Z,28.13
2018-12-05T16:22:20.216Z,16.63
2018-12-05T16:24:48.615Z,19.60
2018-12-05T16:32:45.708Z,24.43
2018-12-05T16:38:31.487Z,32.25
2018-12-05T16:40:59.658Z,24.40
2018-12-05T16:46:29.245Z,29.93
2018-12-05T16:49:02.935Z,28.07
2018-12-05T16:52:47.590Z,30.43
2018-12-05T16:55:15.721Z,33.07
2018-12-05T16:57:44.250Z,40.83
2018-12-05T17:00:12.330Z,23.27
2018-12-05T17:02:40.479Z,27.93
2018-12-05T17:05:08.651Z,30.67
2018-12-05T17:07:36.884Z,28.17
2018-12-05T17:10:05.603Z,30.47
2018-12-05T17:12:33.731Z,23.73
2018-12-05T17:15:01.794Z,31.67
2018-12-05T17:17:29.892Z,39.53
2018-12-05T17:19:58.015Z,37.30
2018-12-05T17:22:26.247Z,34.30
2018-12-05T17:24:55.536Z,30.90
2018-12-05T17:27:24.011Z,31.23
2018-12-05T17:29:52.105Z,42.90
2018-12-05T17:32:20.761Z,40.10
2018-12-05T17:34:48.834Z,41.43
2018-12-05T17:37:17.035Z,26.40
2018-12-05T17:39:45.446Z,36.87
2018-12-05T17:42:13.617Z,47.37
2018-12-05T17:44:41.683Z,41.87
2018-12-05T17:47:09.763Z,45.83
2018-12-05T17:49:37.826Z,31.80
2018-12-05T17:52:05.939Z,27.23
2018-12-05T17:54:34.127Z,59.67
2018-12-05T17:57:02.246Z,35.90
2018-12-05T17:59:30.328Z,32.60
2018-12-05T18:01:58.504Z,51.73
2018-12-05T18:04:26.593Z,56.02
2018-12-05T18:06:54.687Z,76.93
2018-12-05T18:09:22.746Z,95.87
2018-12-05T18:11:51.239Z,138.13
2018-12-05T18:14:19.354Z,109.90
2018-12-05T18:16:47.430Z,88.47
2018-12-05T18:19:15.771Z,94.10
2018-12-05T18:21:43.907Z,68.60
2018-12-05T18:24:12.094Z,60.27
2018-12-05T18:26:41.031Z,62.07
2018-12-05T18:29:09.208Z,60.00
2018-12-05T18:31:37.355Z,49.03
2018-12-05T18:34:05.455Z,50.63
2018-12-05T18:36:33.562Z,55.17
2018-12-05T18:39:01.650Z,36.77
2018-12-05T18:41:29.774Z,40.73
2018-12-05T18:43:57.979Z,40.90
2018-12-05T18:46:26.100Z,46.10
2018-12-05T18:48:54.297Z,61.67
2018-12-05T18:51:22.387Z,78.63
2018-12-05T18:53:50.467Z,48.87
2018-12-05T18:56:18.558Z,44.97
2018-12-05T18:58:46.648Z,49.97
2018-12-05T19:01:14.750Z,72.67
2018-12-05T19:03:42.773Z,55.30
2018-12-05T19:06:10.990Z,47.87
2018-12-05T19:11:14.690Z,56.77
2018-12-05T19:13:48.269Z,43.73
2018-12-05T19:16:16.529Z,36.33
2018-12-05T19:18:47.397Z,44.87
2018-12-05T19:21:17.364Z,37.87
2018-12-05T19:23:50.174Z,40.90
2018-12-05T19:26:18.889Z,33.27
2018-12-05T19:28:47.268Z,42.23
2018-12-05T19:31:19.503Z,36.33
2018-12-05T19:33:46.875Z,33.47
2018-12-05T19:36:15.396Z,42.03
2018-12-05T19:38:43.956Z,30.63
2018-12-05T19:41:14.524Z,41.43
2018-12-05T19:43:43.451Z,33.90
2018-12-05T19:48:56.850Z,32.17
2018-12-05T19:51:32.231Z,39.23
2018-12-05T19:54:01.554Z,44.55
2018-12-05T19:56:29.885Z,35.13
2018-12-05T19:58:58.099Z,29.30
2018-12-05T20:01:26.419Z,43.10
2018-12-05T20:03:54.587Z,35.73
2018-12-05T20:06:23.084Z,34.07
2018-12-05T20:08:51.309Z,36.03
2018-12-05T20:11:19.507Z,38.80
2018-12-05T20:13:47.704Z,27.53
2018-12-05T20:16:15.915Z,25.03
2018-12-05T20:18:44.026Z,38.55
2018-12-05T20:21:12.280Z,62.67
2018-12-05T20:23:40.521Z,37.17
2018-12-05T20:26:08.862Z,31.57
2018-12-05T20:31:22.325Z,38.97
2018-12-05T20:33:50.912Z,32.87
2018-12-05T20:36:19.416Z,51.40
2018-12-05T20:38:48.155Z,40.33
2018-12-05T20:41:19.385Z,31.77
2018-12-05T20:43:48.348Z,35.48
2018-12-05T20:46:16.987Z,25.33
2018-12-05T20:48:46.262Z,30.80
2018-12-05T20:51:17.095Z,23.33
2018-12-05T20:53:46.721Z,23.70
2018-12-05T20:56:15.498Z,25.10
2018-12-05T20:58:44.048Z,31.10
2018-12-05T21:01:12.687Z,24.43
2018-12-05T21:03:41.336Z,30.33
2018-12-05T21:06:09.974Z,34.92
2018-12-05T21:08:38.706Z,28.77
2018-12-05T21:11:07.244Z,26.87
2018-12-05T21:13:35.842Z,32.27
2018-12-05T21:16:05.414Z,26.85
2018-12-05T21:18:33.798Z,23.93
2018-12-05T21:21:02.151Z,23.38
2018-12-05T21:23:31.632Z,17.73
2018-12-05T21:26:00.113Z,26.93
2018-12-05T21:28:30.737Z,31.20
2018-12-05T21:30:59.277Z,20.77
2018-12-05T21:33:27.804Z,23.30
2018-12-05T21:35:56.358Z,24.18
2018-12-05T21:38:25.785Z,28.90
2018-12-05T21:40:55.166Z,27.33
2018-12-05T21:43:23.573Z,29.73
2018-12-05T21:45:52.045Z,26.03
2018-12-05T21:48:20.467Z,22.48
2018-12-05T21:50:48.857Z,28.83
2018-12-05T21:53:17.266Z,26.50
2018-12-05T21:55:45.612Z,32.03
2018-12-05T21:58:15.203Z,26.17
2018-12-05T22:00:43.705Z,27.50
2018-12-05T22:03:12.123Z,27.33
2018-12-05T22:05:40.543Z,46.50
2018-12-05T22:08:09.026Z,21.70
2018-12-05T22:10:37.472Z,21.60
2018-12-05T22:13:06.087Z,25.10
2018-12-05T22:18:42.798Z,27.32
2018-12-05T22:21:10.979Z,22.20
2018-12-05T22:23:39.136Z,27.40
2018-12-05T22:26:07.374Z,19.40
2018-12-05T22:28:35.487Z,22.70
2018-12-05T22:31:03.641Z,24.03
2018-12-05T22:33:32.127Z,24.30
2018-12-05T22:36:00.334Z,24.60
2018-12-05T22:38:28.406Z,23.43
2018-12-05T22:40:56.552Z,28.07
2018-12-05T22:43:24.626Z,23.37
2018-12-05T22:45:52.798Z,29.77
2018-12-05T22:48:20.986Z,23.67
2018-12-05T22:50:49.143Z,19.53
2018-12-05T22:53:17.373Z,18.13
2018-12-05T22:55:45.439Z,25.30
2018-12-05T22:58:13.518Z,27.83
2018-12-05T23:00:44.433Z,24.70
2018-12-05T23:03:12.515Z,15.77
2018-12-05T23:05:40.582Z,17.93
2018-12-05T23:08:08.658Z,22.67
2018-12-05T23:10:36.755Z,24.30
2018-12-05T23:13:05.687Z,23.60
2018-12-05T23:15:33.871Z,24.47
2018-12-05T23:18:01.947Z,25.10
2018-12-05T23:20:30.010Z,28.17
2018-12-05T23:22:58.229Z,24.70
2018-12-05T23:25:26.354Z,23.90
2018-12-05T23:27:54.532Z,18.67
2018-12-05T23:30:22.593Z,32.17
2018-12-05T23:32:50.618Z,24.73
2018-12-05T23:35:18.692Z,30.13
2018-12-05T23:37:46.935Z,28.77
2018-12-05T23:40:15.086Z,29.20
2018-12-05T23:42:43.811Z,20.73
2018-12-05T23:45:12.029Z,24.67
2018-12-05T23:47:40.082Z,22.33
2018-12-05T23:50:08.159Z,23.97
2018-12-05T23:52:36.218Z,20.87
2018-12-05T23:55:04.458Z,29.57
2018-12-05T23:57:32.624Z,24.57
